sensor_id;sensor_type;location;lat;lon;timestamp;pressure;altitude;pressure_sealevel;temperature;humidity
48517;BME280;34310;51.904;4.256;2023-02-19T00:01:45;101941.59;;;15.39;63.02
48517;BME280;34310;51.904;4.256;2023-02-19T00:04:15;101939.78;;;15.38;63.00
48517;BME280;34310;51.904;4.256;2023-02-19T00:06:43;101945.88;;;15.38;62.84
48517;BME280;34310;51.904;4.256;2023-02-19T00:09:13;101942.38;;;15.38;63.00
48517;BME280;34310;51.904;4.256;2023-02-19T00:11:41;101936.28;;;15.37;62.86
48517;BME280;34310;51.904;4.256;2023-02-19T00:14:09;101935.25;;;15.35;62.88
48517;BME280;34310;51.904;4.256;2023-02-19T00:16:38;101934.38;;;15.35;63.03
48517;BME280;34310;51.904;4.256;2023-02-19T00:19:09;101942.16;;;15.35;63.06
48517;BME280;34310;51.904;4.256;2023-02-19T00:21:38;101944.78;;;15.35;63.11
48517;BME280;34310;51.904;4.256;2023-02-19T00:24:06;101946.47;;;15.34;63.12
48517;BME280;34310;51.904;4.256;2023-02-19T00:26:34;101947.28;;;15.33;62.92
48517;BME280;34310;51.904;4.256;2023-02-19T00:29:01;101941.16;;;15.33;62.95
48517;BME280;34310;51.904;4.256;2023-02-19T00:31:30;101948.97;;;15.33;63.12
48517;BME280;34310;51.904;4.256;2023-02-19T00:34:01;101953.25;;;15.32;62.97
48517;BME280;34310;51.904;4.256;2023-02-19T00:36:31;101948.97;;;15.33;62.88
48517;BME280;34310;51.904;4.256;2023-02-19T00:38:59;101951.44;;;15.31;62.88
48517;BME280;34310;51.904;4.256;2023-02-19T00:41:27;101964.44;;;15.31;62.99
48517;BME280;34310;51.904;4.256;2023-02-19T00:43:56;101962.63;;;15.30;62.87
48517;BME280;34310;51.904;4.256;2023-02-19T00:46:27;101968.75;;;15.31;63.03
48517;BME280;34310;51.904;4.256;2023-02-19T00:48:55;101971.25;;;15.29;62.86
48517;BME280;34310;51.904;4.256;2023-02-19T00:51:25;101967.75;;;15.29;63.07
48517;BME280;34310;51.904;4.256;2023-02-19T00:53:53;101971.25;;;15.29;62.99
48517;BME280;34310;51.904;4.256;2023-02-19T00:56:21;101976.44;;;15.29;62.93
48517;BME280;34310;51.904;4.256;2023-02-19T00:58:49;101976.34;;;15.28;62.86
48517;BME280;34310;51.904;4.256;2023-02-19T01:01:17;101983.25;;;15.27;62.85
48517;BME280;34310;51.904;4.256;2023-02-19T01:03:45;101979.75;;;15.27;63.09
48517;BME280;34310;51.904;4.256;2023-02-19T01:06:15;101971.03;;;15.26;63.02
48517;BME280;34310;51.904;4.256;2023-02-19T01:08:43;101962.44;;;15.27;63.04
48517;BME280;34310;51.904;4.256;2023-02-19T01:11:11;101974.53;;;15.27;62.87
48517;BME280;34310;51.904;4.256;2023-02-19T01:13:39;101978.84;;;15.26;62.93
48517;BME280;34310;51.904;4.256;2023-02-19T01:16:12;101979.75;;;15.27;62.93
48517;BME280;34310;51.904;4.256;2023-02-19T01:18:40;101977.94;;;15.26;63.00
48517;BME280;34310;51.904;4.256;2023-02-19T01:21:13;101976.13;;;15.25;62.97
48517;BME280;34310;51.904;4.256;2023-02-19T01:23:41;101986.53;;;15.25;62.85
48517;BME280;34310;51.904;4.256;2023-02-19T01:26:12;101983.94;;;15.25;62.88
48517;BME280;34310;51.904;4.256;2023-02-19T01:28:40;101986.53;;;15.25;62.85
48517;BME280;34310;51.904;4.256;2023-02-19T01:31:14;101978.72;;;15.25;62.96
48517;BME280;34310;51.904;4.256;2023-02-19T01:34:03;101980.44;;;15.24;63.00
48517;BME280;34310;51.904;4.256;2023-02-19T01:36:32;101975.13;;;15.23;62.95
48517;BME280;34310;51.904;4.256;2023-02-19T01:39:01;101982.94;;;15.23;62.93
48517;BME280;34310;51.904;4.256;2023-02-19T01:41:33;101974.22;;;15.22;62.96
48517;BME280;34310;51.904;4.256;2023-02-19T01:44:04;101977.72;;;15.23;62.95
48517;BME280;34310;51.904;4.256;2023-02-19T01:46:38;101984.63;;;15.22;62.91
48517;BME280;34310;51.904;4.256;2023-02-19T01:49:11;101985.41;;;15.21;62.82
48517;BME280;34310;51.904;4.256;2023-02-19T01:54:33;101992.31;;;15.21;62.89
48517;BME280;34310;51.904;4.256;2023-02-19T01:57:05;101993.22;;;15.21;62.84
48517;BME280;34310;51.904;4.256;2023-02-19T01:59:34;102002.72;;;15.21;62.99
48517;BME280;34310;51.904;4.256;2023-02-19T02:02:01;101987.91;;;15.19;62.98
48517;BME280;34310;51.904;4.256;2023-02-19T02:04:30;101994.81;;;15.19;62.94
48517;BME280;34310;51.904;4.256;2023-02-19T02:07:00;102004.44;;;15.20;62.84
48517;BME280;34310;51.904;4.256;2023-02-19T02:09:29;101993.91;;;15.18;62.93
48517;BME280;34310;51.904;4.256;2023-02-19T02:12:15;101993.91;;;15.18;63.02
48517;BME280;34310;51.904;4.256;2023-02-19T02:14:45;101999.91;;;15.17;63.02
48517;BME280;34310;51.904;4.256;2023-02-19T02:17:38;102003.41;;;15.18;63.00
48517;BME280;34310;51.904;4.256;2023-02-19T02:22:50;102001.63;;;15.17;63.05
48517;BME280;34310;51.904;4.256;2023-02-19T02:30:49;102001.50;;;15.15;62.99
48517;BME280;34310;51.904;4.256;2023-02-19T02:33:40;101999.81;;;15.16;63.07
48517;BME280;34310;51.904;4.256;2023-02-19T02:36:19;102005.81;;;15.15;62.97
48517;BME280;34310;51.904;4.256;2023-02-19T02:38:48;102007.50;;;15.14;63.12
48517;BME280;34310;51.904;4.256;2023-02-19T02:41:16;102007.50;;;15.14;62.94
48517;BME280;34310;51.904;4.256;2023-02-19T02:43:43;102006.59;;;15.14;63.06
48517;BME280;34310;51.904;4.256;2023-02-19T02:46:12;102007.50;;;15.14;63.05
48517;BME280;34310;51.904;4.256;2023-02-19T02:48:48;102010.00;;;15.13;62.97
48517;BME280;34310;51.904;4.256;2023-02-19T02:54:13;102016.09;;;15.13;62.98
48517;BME280;34310;51.904;4.256;2023-02-19T02:57:01;102025.59;;;15.13;62.99
48517;BME280;34310;51.904;4.256;2023-02-19T02:59:33;102009.91;;;15.11;63.14
48517;BME280;34310;51.904;4.256;2023-02-19T03:02:08;102024.72;;;15.12;62.98
48517;BME280;34310;51.904;4.256;2023-02-19T03:07:52;102023.00;;;15.13;63.00
48517;BME280;34310;51.904;4.256;2023-02-19T03:12:58;102034.22;;;15.12;63.11
48517;BME280;34310;51.904;4.256;2023-02-19T03:15:51;102031.50;;;15.10;63.10
48517;BME280;34310;51.904;4.256;2023-02-19T03:18:42;102034.09;;;15.10;62.95
48517;BME280;34310;51.904;4.256;2023-02-19T03:21:33;102028.78;;;15.09;62.96
48517;BME280;34310;51.904;4.256;2023-02-19T03:24:03;102034.91;;;15.09;63.08
48517;BME280;34310;51.904;4.256;2023-02-19T03:26:52;102039.19;;;15.09;63.13
48517;BME280;34310;51.904;4.256;2023-02-19T03:29:25;102044.41;;;15.09;63.01
48517;BME280;34310;51.904;4.256;2023-02-19T03:31:59;102044.41;;;15.09;63.01
48517;BME280;34310;51.904;4.256;2023-02-19T03:34:37;102048.69;;;15.08;63.10
48517;BME280;34310;51.904;4.256;2023-02-19T03:37:17;102046.00;;;15.07;63.14
48517;BME280;34310;51.904;4.256;2023-02-19T03:39:52;102059.91;;;15.07;63.00
48517;BME280;34310;51.904;4.256;2023-02-19T03:42:23;102061.59;;;15.07;62.99
48517;BME280;34310;51.904;4.256;2023-02-19T03:48:22;102059.78;;;15.06;63.00
48517;BME280;34310;51.904;4.256;2023-02-19T03:56:54;102066.69;;;15.05;63.08
48517;BME280;34310;51.904;4.256;2023-02-19T04:02:48;102070.84;;;15.03;63.12
48517;BME280;34310;51.904;4.256;2023-02-19T04:05:24;102070.84;;;15.03;62.96
48517;BME280;34310;51.904;4.256;2023-02-19T04:07:56;102076.03;;;15.03;63.12
48517;BME280;34310;51.904;4.256;2023-02-19T04:10:25;102071.63;;;15.02;63.15
48517;BME280;34310;51.904;4.256;2023-02-19T04:13:03;102080.34;;;15.03;63.13
48517;BME280;34310;51.904;4.256;2023-02-19T04:15:33;102080.34;;;15.03;63.02
48517;BME280;34310;51.904;4.256;2023-02-19T04:18:06;102089.84;;;15.02;63.15
48517;BME280;34310;51.904;4.256;2023-02-19T04:20:39;102083.84;;;15.03;62.93
48517;BME280;34310;51.904;4.256;2023-02-19T04:23:08;102089.84;;;15.02;63.07
48517;BME280;34310;51.904;4.256;2023-02-19T04:25:38;102095.94;;;15.03;63.04
48517;BME280;34310;51.904;4.256;2023-02-19T04:28:08;102090.75;;;15.03;63.10
48517;BME280;34310;51.904;4.256;2023-02-19T04:30:36;102095.94;;;15.03;63.07
48517;BME280;34310;51.904;4.256;2023-02-19T04:33:03;102097.66;;;15.02;63.08
48517;BME280;34310;51.904;4.256;2023-02-19T04:35:30;102108.94;;;15.03;63.18
48517;BME280;34310;51.904;4.256;2023-02-19T04:37:58;102112.34;;;15.02;63.30
48517;BME280;34310;51.904;4.256;2023-02-19T04:40:25;102123.53;;;15.01;63.28
48517;BME280;34310;51.904;4.256;2023-02-19T04:42:52;102134.84;;;15.01;63.36
48517;BME280;34310;51.904;4.256;2023-02-19T04:45:19;102134.84;;;15.01;63.31
48517;BME280;34310;51.904;4.256;2023-02-19T04:47:46;102133.03;;;15.00;63.47
48517;BME280;34310;51.904;4.256;2023-02-19T04:50:14;102143.44;;;15.00;63.43
48517;BME280;34310;51.904;4.256;2023-02-19T04:52:41;102144.34;;;15.01;63.53
48517;BME280;34310;51.904;4.256;2023-02-19T04:55:09;102145.13;;;15.00;63.67
48517;BME280;34310;51.904;4.256;2023-02-19T04:57:36;102144.34;;;15.01;63.50
48517;BME280;34310;51.904;4.256;2023-02-19T05:00:04;102151.13;;;14.99;63.82
48517;BME280;34310;51.904;4.256;2023-02-19T05:02:31;102157.25;;;14.99;63.69
48517;BME280;34310;51.904;4.256;2023-02-19T05:04:59;102167.66;;;14.99;63.56
48517;BME280;34310;51.904;4.256;2023-02-19T05:07:26;102159.72;;;14.98;63.71
48517;BME280;34310;51.904;4.256;2023-02-19T05:09:53;102171.16;;;15.00;63.61
48517;BME280;34310;51.904;4.256;2023-02-19T05:12:21;102179.75;;;14.99;63.52
48517;BME280;34310;51.904;4.256;2023-02-19T05:14:48;102178.03;;;14.99;63.53
48517;BME280;34310;51.904;4.256;2023-02-19T05:17:15;102193.66;;;14.99;63.76
48517;BME280;34310;51.904;4.256;2023-02-19T05:19:43;102191.06;;;14.99;63.38
48517;BME280;34310;51.904;4.256;2023-02-19T05:22:10;102193.66;;;14.99;63.54
48517;BME280;34310;51.904;4.256;2023-02-19T05:24:37;102204.97;;;15.00;63.48
48517;BME280;34310;51.904;4.256;2023-02-19T05:27:05;102209.25;;;14.99;63.32
48517;BME280;34310;51.904;4.256;2023-02-19T05:29:32;102205.88;;;15.00;63.38
48517;BME280;34310;51.904;4.256;2023-02-19T05:31:59;102204.16;;;15.01;63.31
48517;BME280;34310;51.904;4.256;2023-02-19T05:34:26;102205.97;;;15.02;63.34
48517;BME280;34310;51.904;4.256;2023-02-19T05:36:54;102208.56;;;15.02;63.26
48517;BME280;34310;51.904;4.256;2023-02-19T05:39:21;102209.47;;;15.02;63.26
48517;BME280;34310;51.904;4.256;2023-02-19T05:41:48;102206.09;;;15.03;63.26
48517;BME280;34310;51.904;4.256;2023-02-19T05:44:15;102193.88;;;15.02;63.05
48517;BME280;34310;51.904;4.256;2023-02-19T05:46:43;102199.97;;;15.03;63.07
48517;BME280;34310;51.904;4.256;2023-02-19T05:49:10;102201.69;;;15.02;63.02
48517;BME280;34310;51.904;4.256;2023-02-19T05:51:38;102197.38;;;15.03;63.11
48517;BME280;34310;51.904;4.256;2023-02-19T05:54:05;102199.97;;;15.03;62.99
48517;BME280;34310;51.904;4.256;2023-02-19T05:56:38;102213.91;;;15.03;62.99
48517;BME280;34310;51.904;4.256;2023-02-19T05:59:26;102212.09;;;15.02;63.02
48517;BME280;34310;51.904;4.256;2023-02-19T06:01:54;102215.59;;;15.03;63.00
48517;BME280;34310;51.904;4.256;2023-02-19T06:04:21;102212.09;;;15.02;62.86
48517;BME280;34310;51.904;4.256;2023-02-19T06:06:49;102213.00;;;15.03;63.00
48517;BME280;34310;51.904;4.256;2023-02-19T06:09:17;102220.78;;;15.03;62.94
48517;BME280;34310;51.904;4.256;2023-02-19T06:11:44;102223.41;;;15.03;63.00
48517;BME280;34310;51.904;4.256;2023-02-19T06:14:12;102221.69;;;15.03;62.96
48517;BME280;34310;51.904;4.256;2023-02-19T06:16:40;102226.91;;;15.03;63.00
48517;BME280;34310;51.904;4.256;2023-02-19T06:19:08;102226.00;;;15.03;62.93
48517;BME280;34310;51.904;4.256;2023-02-19T06:21:35;102240.84;;;15.04;63.07
48517;BME280;34310;51.904;4.256;2023-02-19T06:24:07;102239.16;;;15.04;63.16
48517;BME280;34310;51.904;4.256;2023-02-19T06:26:35;102244.19;;;15.03;63.07
48517;BME280;34310;51.904;4.256;2023-02-19T06:29:02;102244.19;;;15.03;63.10
48517;BME280;34310;51.904;4.256;2023-02-19T06:31:29;102249.41;;;15.03;63.04
48517;BME280;34310;51.904;4.256;2023-02-19T06:33:57;102244.19;;;15.03;63.03
48517;BME280;34310;51.904;4.256;2023-02-19T06:36:24;102245.00;;;15.02;63.04
48517;BME280;34310;51.904;4.256;2023-02-19T06:38:52;102248.50;;;15.02;62.83
48517;BME280;34310;51.904;4.256;2023-02-19T06:41:19;102253.69;;;15.02;62.99
48517;BME280;34310;51.904;4.256;2023-02-19T06:43:46;102251.09;;;15.02;63.11
48517;BME280;34310;51.904;4.256;2023-02-19T06:46:14;102262.28;;;15.01;63.02
48517;BME280;34310;51.904;4.256;2023-02-19T06:48:43;102264.09;;;15.02;62.94
48517;BME280;34310;51.904;4.256;2023-02-19T06:51:16;102258.78;;;15.01;62.98
48517;BME280;34310;51.904;4.256;2023-02-19T06:53:53;102262.28;;;15.01;63.03
48517;BME280;34310;51.904;4.256;2023-02-19T06:56:23;102268.41;;;15.02;63.09
48517;BME280;34310;51.904;4.256;2023-02-19T06:58:53;102264.00;;;15.01;62.96
48517;BME280;34310;51.904;4.256;2023-02-19T07:01:21;102264.78;;;15.00;62.83
48517;BME280;34310;51.904;4.256;2023-02-19T07:03:49;102267.38;;;15.00;62.78
48517;BME280;34310;51.904;4.256;2023-02-19T07:06:20;102275.19;;;15.00;62.87
48517;BME280;34310;51.904;4.256;2023-02-19T07:08:48;102282.19;;;15.01;63.01
48517;BME280;34310;51.904;4.256;2023-02-19T07:11:15;102290.78;;;15.00;63.36
48517;BME280;34310;51.904;4.256;2023-02-19T07:13:44;102295.09;;;14.99;63.20
48517;BME280;34310;51.904;4.256;2023-02-19T07:16:12;102283.66;;;14.97;63.33
48517;BME280;34310;51.904;4.256;2023-02-19T07:18:40;102288.06;;;14.98;63.36
48517;BME280;34310;51.904;4.256;2023-02-19T07:21:12;102301.97;;;14.99;63.48
48517;BME280;34310;51.904;4.256;2023-02-19T07:23:40;102310.69;;;14.99;63.48
48517;BME280;34310;51.904;4.256;2023-02-19T07:26:09;102317.59;;;14.99;63.58
48517;BME280;34310;51.904;4.256;2023-02-19T07:28:38;102324.59;;;15.00;63.55
48517;BME280;34310;51.904;4.256;2023-02-19T07:31:06;102325.28;;;14.97;63.71
48517;BME280;34310;51.904;4.256;2023-02-19T07:33:33;102335.69;;;14.97;63.85
48517;BME280;34310;51.904;4.256;2023-02-19T07:36:01;102340.75;;;14.96;64.14
48517;BME280;34310;51.904;4.256;2023-02-19T07:38:28;102346.88;;;14.96;64.31
48517;BME280;34310;51.904;4.256;2023-02-19T07:40:58;102347.78;;;14.97;64.14
48517;BME280;34310;51.904;4.256;2023-02-19T07:43:30;102355.56;;;14.97;64.29
48517;BME280;34310;51.904;4.256;2023-02-19T07:45:58;102363.50;;;14.98;64.02
48517;BME280;34310;51.904;4.256;2023-02-19T07:48:28;102367.91;;;14.99;64.38
48517;BME280;34310;51.904;4.256;2023-02-19T07:50:58;102381.81;;;15.00;64.58
48517;BME280;34310;51.904;4.256;2023-02-19T07:53:27;102373.13;;;14.99;64.10
48517;BME280;34310;51.904;4.256;2023-02-19T07:55:59;102381.03;;;15.01;64.37
48517;BME280;34310;51.904;4.256;2023-02-19T07:58:27;102386.22;;;15.01;64.42
48517;BME280;34310;51.904;4.256;2023-02-19T08:00:55;102404.44;;;15.01;64.21
48517;BME280;34310;51.904;4.256;2023-02-19T08:03:22;102400.16;;;15.01;64.11
48517;BME280;34310;51.904;4.256;2023-02-19T08:05:50;102405.47;;;15.03;64.17
48517;BME280;34310;51.904;4.256;2023-02-19T08:08:19;102399.50;;;15.04;64.04
48517;BME280;34310;51.904;4.256;2023-02-19T08:10:47;102416.03;;;15.04;63.94
48517;BME280;34310;51.904;4.256;2023-02-19T08:13:32;102411.72;;;15.05;63.81
48517;BME280;34310;51.904;4.256;2023-02-19T08:18:46;102423.94;;;15.06;63.55
48517;BME280;34310;51.904;4.256;2023-02-19T08:21:14;102418.75;;;15.06;63.53
48517;BME280;34310;51.904;4.256;2023-02-19T08:23:44;102421.47;;;15.07;63.53
48517;BME280;34310;51.904;4.256;2023-02-19T08:26:13;102416.25;;;15.07;63.45
48517;BME280;34310;51.904;4.256;2023-02-19T08:28:40;102425.88;;;15.08;63.51
48517;BME280;34310;51.904;4.256;2023-02-19T08:31:09;102412.06;;;15.09;63.30
48517;BME280;34310;51.904;4.256;2023-02-19T08:33:38;102416.38;;;15.09;63.60
48517;BME280;34310;51.904;4.256;2023-02-19T08:36:07;102417.28;;;15.09;63.51
48517;BME280;34310;51.904;4.256;2023-02-19T08:38:36;102413.66;;;15.07;63.65
48517;BME280;34310;51.904;4.256;2023-02-19T08:41:08;102427.69;;;15.09;63.67
48517;BME280;34310;51.904;4.256;2023-02-19T08:43:37;102429.38;;;15.09;63.80
48517;BME280;34310;51.904;4.256;2023-02-19T08:46:05;102429.38;;;15.09;64.00
48517;BME280;34310;51.904;4.256;2023-02-19T08:48:33;102444.19;;;15.10;64.11
48517;BME280;34310;51.904;4.256;2023-02-19T08:51:02;102439.91;;;15.10;63.95
48517;BME280;34310;51.904;4.256;2023-02-19T08:53:31;102440.03;;;15.12;63.81
48517;BME280;34310;51.904;4.256;2023-02-19T08:56:08;102446.13;;;15.12;63.67
48517;BME280;34310;51.904;4.256;2023-02-19T08:58:36;102441.84;;;15.13;63.70
48517;BME280;34310;51.904;4.256;2023-02-19T09:01:08;102436.63;;;15.13;63.74
48517;BME280;34310;51.904;4.256;2023-02-19T09:03:37;102436.63;;;15.13;63.52
48517;BME280;34310;51.904;4.256;2023-02-19T09:06:04;102424.53;;;15.13;63.77
48517;BME280;34310;51.904;4.256;2023-02-19T09:08:32;102421.94;;;15.13;63.92
48517;BME280;34310;51.904;4.256;2023-02-19T09:11:03;102422.84;;;15.14;63.64
48517;BME280;34310;51.904;4.256;2023-02-19T09:13:33;102424.66;;;15.15;63.71
48517;BME280;34310;51.904;4.256;2023-02-19T09:16:03;102445.47;;;15.15;63.79
48517;BME280;34310;51.904;4.256;2023-02-19T09:18:30;102441.16;;;15.15;63.77
48517;BME280;34310;51.904;4.256;2023-02-19T09:21:03;102439.47;;;15.16;64.08
48517;BME280;34310;51.904;4.256;2023-02-19T09:23:35;102442.06;;;15.16;63.72
48517;BME280;34310;51.904;4.256;2023-02-19T09:26:03;102447.38;;;15.17;63.98
48517;BME280;34310;51.904;4.256;2023-02-19T09:28:33;102463.00;;;15.17;63.85
48517;BME280;34310;51.904;4.256;2023-02-19T09:31:05;102475.22;;;15.18;64.07
48517;BME280;34310;51.904;4.256;2023-02-19T09:33:33;102483.81;;;15.17;63.93
48517;BME280;34310;51.904;4.256;2023-02-19T09:36:01;102477.81;;;15.18;63.76
48517;BME280;34310;51.904;4.256;2023-02-19T09:38:29;102492.66;;;15.19;63.88
48517;BME280;34310;51.904;4.256;2023-02-19T09:40:57;102500.44;;;15.19;63.99
48517;BME280;34310;51.904;4.256;2023-02-19T09:43:27;102497.97;;;15.21;64.12
48517;BME280;34310;51.904;4.256;2023-02-19T09:49:39;102515.38;;;15.22;63.81
48517;BME280;34310;51.904;4.256;2023-02-19T09:52:11;102510.19;;;15.22;63.79
48517;BME280;34310;51.904;4.256;2023-02-19T09:54:41;102529.31;;;15.23;63.94
48517;BME280;34310;51.904;4.256;2023-02-19T09:57:15;102526.72;;;15.23;63.81
48517;BME280;34310;51.904;4.256;2023-02-19T09:59:51;102523.19;;;15.22;63.67
48517;BME280;34310;51.904;4.256;2023-02-19T10:02:24;102526.81;;;15.24;63.82
48517;BME280;34310;51.904;4.256;2023-02-19T10:04:52;102516.41;;;15.24;64.28
48517;BME280;34310;51.904;4.256;2023-02-19T10:07:23;102519.13;;;15.26;63.90
48517;BME280;34310;51.904;4.256;2023-02-19T10:10:16;102533.97;;;15.27;64.11
48517;BME280;34310;51.904;4.256;2023-02-19T10:12:51;102545.41;;;15.29;64.24
48517;BME280;34310;51.904;4.256;2023-02-19T10:15:33;102547.22;;;15.30;63.66
48517;BME280;34310;51.904;4.256;2023-02-19T10:18:03;102544.59;;;15.30;63.66
48517;BME280;34310;51.904;4.256;2023-02-19T10:20:31;102549.81;;;15.30;63.62
48517;BME280;34310;51.904;4.256;2023-02-19T10:23:07;102561.25;;;15.32;63.56
48517;BME280;34310;51.904;4.256;2023-02-19T10:25:41;102567.34;;;15.32;63.54
48517;BME280;34310;51.904;4.256;2023-02-19T10:28:16;102563.84;;;15.32;63.36
48517;BME280;34310;51.904;4.256;2023-02-19T10:30:47;102560.50;;;15.33;63.26
48517;BME280;34310;51.904;4.256;2023-02-19T10:33:16;102573.50;;;15.33;63.18
48517;BME280;34310;51.904;4.256;2023-02-19T10:35:56;102575.16;;;15.32;63.39
48517;BME280;34310;51.904;4.256;2023-02-19T10:38:35;102578.84;;;15.34;63.41
48517;BME280;34310;51.904;4.256;2023-02-19T10:43:35;102575.44;;;15.35;63.50
48517;BME280;34310;51.904;4.256;2023-02-19T10:46:06;102577.25;;;15.36;63.29
48517;BME280;34310;51.904;4.256;2023-02-19T10:48:37;102575.44;;;15.35;63.24
48517;BME280;34310;51.904;4.256;2023-02-19T10:51:09;102579.84;;;15.36;63.21
48517;BME280;34310;51.904;4.256;2023-02-19T10:53:43;102578.94;;;15.36;63.47
48517;BME280;34310;51.904;4.256;2023-02-19T10:56:22;102586.88;;;15.37;63.64
48517;BME280;34310;51.904;4.256;2023-02-19T10:58:53;102589.47;;;15.37;63.57
48517;BME280;34310;51.904;4.256;2023-02-19T11:01:23;102585.97;;;15.37;63.56
48517;BME280;34310;51.904;4.256;2023-02-19T11:04:14;102582.47;;;15.36;63.55
48517;BME280;34310;51.904;4.256;2023-02-19T11:06:40;102589.47;;;15.37;63.49
48517;BME280;34310;51.904;4.256;2023-02-19T11:12:07;102591.28;;;15.38;63.77
48517;BME280;34310;51.904;4.256;2023-02-19T11:14:36;102588.69;;;15.38;63.71
48517;BME280;34310;51.904;4.256;2023-02-19T11:17:04;102583.50;;;15.38;63.60
48517;BME280;34310;51.904;4.256;2023-02-19T11:19:40;102580.88;;;15.38;63.57
48517;BME280;34310;51.904;4.256;2023-02-19T11:22:54;102580.09;;;15.39;63.79
48517;BME280;34310;51.904;4.256;2023-02-19T11:30:44;102576.69;;;15.40;63.80
48517;BME280;34310;51.904;4.256;2023-02-19T11:35:43;102570.59;;;15.40;63.69
48517;BME280;34310;51.904;4.256;2023-02-19T11:38:12;102576.59;;;15.39;63.92
48517;BME280;34310;51.904;4.256;2023-02-19T11:40:55;102577.50;;;15.39;63.69
48517;BME280;34310;51.904;4.256;2023-02-19T11:43:52;102578.41;;;15.40;63.72
48517;BME280;34310;51.904;4.256;2023-02-19T11:47:21;102571.38;;;15.39;63.79
48517;BME280;34310;51.904;4.256;2023-02-19T11:57:57;102561.88;;;15.39;63.73
48517;BME280;34310;51.904;4.256;2023-02-19T12:00:58;102563.69;;;15.40;63.71
48517;BME280;34310;51.904;4.256;2023-02-19T12:04:02;102575.78;;;15.40;63.68
48517;BME280;34310;51.904;4.256;2023-02-19T12:06:39;102577.59;;;15.41;63.86
48517;BME280;34310;51.904;4.256;2023-02-19T12:20:34;102597.66;;;15.42;63.58
48517;BME280;34310;51.904;4.256;2023-02-19T12:45:47;102627.53;;;15.47;63.16
48517;BME280;34310;51.904;4.256;2023-02-19T12:51:20;102641.47;;;15.47;63.23
48517;BME280;34310;51.904;4.256;2023-02-19T12:57:12;102649.41;;;15.49;63.22
48517;BME280;34310;51.904;4.256;2023-02-19T13:02:47;102656.31;;;15.48;63.23
48517;BME280;34310;51.904;4.256;2023-02-19T13:08:22;102676.22;;;15.48;63.38
48517;BME280;34310;51.904;4.256;2023-02-19T13:11:19;102691.03;;;15.49;63.53
48517;BME280;34310;51.904;4.256;2023-02-19T13:13:53;102683.25;;;15.49;63.43
48517;BME280;34310;51.904;4.256;2023-02-19T13:16:23;102694.56;;;15.49;63.46
48517;BME280;34310;51.904;4.256;2023-02-19T13:18:58;102697.16;;;15.49;63.55
48517;BME280;34310;51.904;4.256;2023-02-19T13:21:27;102685.19;;;15.52;63.42
48517;BME280;34310;51.904;4.256;2023-02-19T13:24:20;102674.66;;;15.50;63.46
48517;BME280;34310;51.904;4.256;2023-02-19T13:32:38;102682.56;;;15.52;63.26
48517;BME280;34310;51.904;4.256;2023-02-19T13:37:54;102680.09;;;15.53;63.24
48517;BME280;34310;51.904;4.256;2023-02-19T13:42:58;102692.31;;;15.54;63.16
48517;BME280;34310;51.904;4.256;2023-02-19T13:45:39;102697.53;;;15.54;63.21
48517;BME280;34310;51.904;4.256;2023-02-19T13:48:33;102709.75;;;15.55;63.24
48517;BME280;34310;51.904;4.256;2023-02-19T14:05:09;102722.91;;;15.57;63.20
48517;BME280;34310;51.904;4.256;2023-02-19T14:07:47;102724.72;;;15.58;63.27
48517;BME280;34310;51.904;4.256;2023-02-19T14:19:13;102728.25;;;15.58;63.03
48517;BME280;34310;51.904;4.256;2023-02-19T14:21:41;102721.19;;;15.57;63.05
48517;BME280;34310;51.904;4.256;2023-02-19T14:24:14;102730.88;;;15.58;63.29
48517;BME280;34310;51.904;4.256;2023-02-19T14:26:42;102733.31;;;15.57;63.26
48517;BME280;34310;51.904;4.256;2023-02-19T14:29:13;102735.13;;;15.58;63.44
48517;BME280;34310;51.904;4.256;2023-02-19T14:31:44;102740.34;;;15.58;63.41
48517;BME280;34310;51.904;4.256;2023-02-19T14:34:17;102735.28;;;15.59;63.56
48517;BME280;34310;51.904;4.256;2023-02-19T14:36:56;102726.56;;;15.59;63.39
48517;BME280;34310;51.904;4.256;2023-02-19T14:39:34;102710.94;;;15.59;63.48
48517;BME280;34310;51.904;4.256;2023-02-19T14:42:23;102716.16;;;15.59;63.47
48517;BME280;34310;51.904;4.256;2023-02-19T14:45:02;102713.53;;;15.59;63.63
48517;BME280;34310;51.904;4.256;2023-02-19T14:47:32;102716.16;;;15.59;63.54
48517;BME280;34310;51.904;4.256;2023-02-19T14:50:06;102717.06;;;15.59;63.60
48517;BME280;34310;51.904;4.256;2023-02-19T14:52:47;102721.47;;;15.60;63.62
48517;BME280;34310;51.904;4.256;2023-02-19T14:55:35;102715.38;;;15.60;63.42
48517;BME280;34310;51.904;4.256;2023-02-19T14:58:09;102709.25;;;15.59;63.53
48517;BME280;34310;51.904;4.256;2023-02-19T15:00:40;102713.53;;;15.59;63.41
48517;BME280;34310;51.904;4.256;2023-02-19T15:03:26;102717.06;;;15.59;63.49
48517;BME280;34310;51.904;4.256;2023-02-19T15:06:06;102717.06;;;15.59;63.41
48517;BME280;34310;51.904;4.256;2023-02-19T15:08:38;102714.28;;;15.58;63.58
48517;BME280;34310;51.904;4.256;2023-02-19T15:11:11;102717.97;;;15.60;63.51
48517;BME280;34310;51.904;4.256;2023-02-19T15:13:41;102727.47;;;15.59;63.56
48517;BME280;34310;51.904;4.256;2023-02-19T15:16:20;102719.66;;;15.59;63.53
48517;BME280;34310;51.904;4.256;2023-02-19T15:18:51;102724.88;;;15.59;63.43
48517;BME280;34310;51.904;4.256;2023-02-19T15:21:30;102723.97;;;15.59;63.37
48517;BME280;34310;51.904;4.256;2023-02-19T15:24:03;102731.78;;;15.59;63.36
48517;BME280;34310;51.904;4.256;2023-02-19T15:26:35;102735.28;;;15.59;63.52
48517;BME280;34310;51.904;4.256;2023-02-19T15:29:09;102734.38;;;15.59;63.47
48517;BME280;34310;51.904;4.256;2023-02-19T15:31:48;102744.78;;;15.59;63.54
48517;BME280;34310;51.904;4.256;2023-02-19T15:34:27;102726.41;;;15.57;63.41
48517;BME280;34310;51.904;4.256;2023-02-19T15:37:00;102734.22;;;15.57;63.37